sensor_id;sensor_type;location;lat;lon;timestamp;P1;durP1;ratioP1;P2;durP2;ratioP2
42000;SDS011;27689;48.390;10.856;2023-01-19T00:00:19;19.63;;;13.27;;
42000;SDS011;27689;48.390;10.856;2023-01-19T00:03:03;18.05;;;14.02;;
42000;SDS011;27689;48.390;10.856;2023-01-19T00:05:47;18.45;;;12.93;;
42000;SDS011;27689;48.390;10.856;2023-01-19T00:08:31;19.27;;;12.80;;
42000;SDS011;27689;48.390;10.856;2023-01-19T00:11:15;16.00;;;11.75;;
42000;SDS011;27689;48.390;10.856;2023-01-19T00:14:00;17.25;;;12.30;;
42000;SDS011;27689;48.390;10.856;2023-01-19T00:16:44;15.73;;;12.00;;
42000;SDS011;27689;48.390;10.856;2023-01-19T00:19:29;14.40;;;11.05;;
42000;SDS011;27689;48.390;10.856;2023-01-19T00:22:13;16.63;;;12.32;;
42000;SDS011;27689;48.390;10.856;2023-01-19T00:24:56;18.20;;;11.75;;
42000;SDS011;27689;48.390;10.856;2023-01-19T00:27:40;17.98;;;11.75;;
42000;SDS011;27689;48.390;10.856;2023-01-19T00:30:24;17.80;;;12.65;;
42000;SDS011;27689;48.390;10.856;2023-01-19T00:33:09;15.45;;;11.68;;
42000;SDS011;27689;48.390;10.856;2023-01-19T00:35:56;16.63;;;12.27;;
42000;SDS011;27689;48.390;10.856;2023-01-19T00:38:40;17.88;;;12.88;;
42000;SDS011;27689;48.390;10.856;2023-01-19T00:41:24;17.38;;;11.68;;
42000;SDS011;27689;48.390;10.856;2023-01-19T00:44:27;17.48;;;12.60;;
42000;SDS011;27689;48.390;10.856;2023-01-19T00:47:11;14.00;;;10.73;;
42000;SDS011;27689;48.390;10.856;2023-01-19T00:49:55;18.35;;;12.35;;
42000;SDS011;27689;48.390;10.856;2023-01-19T00:52:39;16.73;;;12.38;;
42000;SDS011;27689;48.390;10.856;2023-01-19T00:58:08;15.20;;;11.15;;
42000;SDS011;27689;48.390;10.856;2023-01-19T01:00:52;15.18;;;10.77;;
42000;SDS011;27689;48.390;10.856;2023-01-19T01:03:36;15.18;;;11.00;;
42000;SDS011;27689;48.390;10.856;2023-01-19T01:06:20;18.70;;;11.75;;
42000;SDS011;27689;48.390;10.856;2023-01-19T01:11:54;15.32;;;11.80;;
42000;SDS011;27689;48.390;10.856;2023-01-19T01:14:37;16.55;;;12.25;;
42000;SDS011;27689;48.390;10.856;2023-01-19T01:17:22;12.45;;;9.52;;
42000;SDS011;27689;48.390;10.856;2023-01-19T01:20:07;18.30;;;12.75;;
42000;SDS011;27689;48.390;10.856;2023-01-19T01:25:36;17.43;;;12.50;;
42000;SDS011;27689;48.390;10.856;2023-01-19T01:28:20;17.10;;;13.10;;
42000;SDS011;27689;48.390;10.856;2023-01-19T01:31:04;15.55;;;12.40;;
42000;SDS011;27689;48.390;10.856;2023-01-19T01:33:47;17.55;;;13.10;;
42000;SDS011;27689;48.390;10.856;2023-01-19T01:36:31;19.70;;;12.40;;
42000;SDS011;27689;48.390;10.856;2023-01-19T01:42:00;17.27;;;12.63;;
42000;SDS011;27689;48.390;10.856;2023-01-19T01:47:43;16.80;;;13.00;;
42000;SDS011;27689;48.390;10.856;2023-01-19T01:50:29;14.85;;;11.40;;
42000;SDS011;27689;48.390;10.856;2023-01-19T01:53:16;16.55;;;12.23;;
42000;SDS011;27689;48.390;10.856;2023-01-19T01:56:01;15.77;;;11.65;;
42000;SDS011;27689;48.390;10.856;2023-01-19T01:58:50;16.98;;;12.35;;
42000;SDS011;27689;48.390;10.856;2023-01-19T02:01:34;14.40;;;10.70;;
42000;SDS011;27689;48.390;10.856;2023-01-19T02:04:38;13.77;;;11.02;;
42000;SDS011;27689;48.390;10.856;2023-01-19T02:07:37;16.17;;;12.57;;
42000;SDS011;27689;48.390;10.856;2023-01-19T02:10:44;15.82;;;11.68;;
42000;SDS011;27689;48.390;10.856;2023-01-19T02:13:48;17.50;;;11.73;;
42000;SDS011;27689;48.390;10.856;2023-01-19T02:19:20;16.83;;;11.75;;
42000;SDS011;27689;48.390;10.856;2023-01-19T02:22:10;20.55;;;13.23;;
42000;SDS011;27689;48.390;10.856;2023-01-19T02:24:54;20.50;;;13.35;;
42000;SDS011;27689;48.390;10.856;2023-01-19T02:30:23;18.88;;;13.10;;
42000;SDS011;27689;48.390;10.856;2023-01-19T02:33:07;17.92;;;12.88;;
42000;SDS011;27689;48.390;10.856;2023-01-19T02:38:38;17.88;;;12.90;;
42000;SDS011;27689;48.390;10.856;2023-01-19T02:41:28;15.80;;;11.85;;
42000;SDS011;27689;48.390;10.856;2023-01-19T02:44:17;16.75;;;12.23;;
42000;SDS011;27689;48.390;10.856;2023-01-19T02:47:03;20.20;;;12.27;;
42000;SDS011;27689;48.390;10.856;2023-01-19T02:49:55;16.67;;;12.25;;
42000;SDS011;27689;48.390;10.856;2023-01-19T02:52:40;15.93;;;11.85;;
42000;SDS011;27689;48.390;10.856;2023-01-19T02:55:24;16.75;;;12.43;;
42000;SDS011;27689;48.390;10.856;2023-01-19T02:58:17;17.17;;;12.75;;
42000;SDS011;27689;48.390;10.856;2023-01-19T03:01:15;15.95;;;11.98;;
42000;SDS011;27689;48.390;10.856;2023-01-19T03:04:39;16.38;;;11.00;;
42000;SDS011;27689;48.390;10.856;2023-01-19T03:10:12;15.57;;;11.60;;
42000;SDS011;27689;48.390;10.856;2023-01-19T03:13:06;16.95;;;11.88;;
42000;SDS011;27689;48.390;10.856;2023-01-19T03:15:59;15.65;;;10.73;;
42000;SDS011;27689;48.390;10.856;2023-01-19T03:19:39;16.00;;;11.25;;
42000;SDS011;27689;48.390;10.856;2023-01-19T03:22:04;17.10;;;12.13;;
42000;SDS011;27689;48.390;10.856;2023-01-19T03:24:54;16.35;;;11.38;;
42000;SDS011;27689;48.390;10.856;2023-01-19T03:27:41;16.70;;;12.05;;
42000;SDS011;27689;48.390;10.856;2023-01-19T03:30:29;16.90;;;12.05;;
42000;SDS011;27689;48.390;10.856;2023-01-19T03:33:23;18.55;;;12.48;;
42000;SDS011;27689;48.390;10.856;2023-01-19T03:36:12;15.63;;;12.40;;
42000;SDS011;27689;48.390;10.856;2023-01-19T03:39:01;15.25;;;11.18;;
42000;SDS011;27689;48.390;10.856;2023-01-19T03:41:48;16.25;;;12.30;;
42000;SDS011;27689;48.390;10.856;2023-01-19T03:44:35;14.48;;;11.40;;
42000;SDS011;27689;48.390;10.856;2023-01-19T03:47:21;17.30;;;12.25;;
42000;SDS011;27689;48.390;10.856;2023-01-19T03:50:07;17.08;;;11.80;;
42000;SDS011;27689;48.390;10.856;2023-01-19T03:55:51;16.85;;;11.82;;
42000;SDS011;27689;48.390;10.856;2023-01-19T03:58:36;14.15;;;11.10;;
42000;SDS011;27689;48.390;10.856;2023-01-19T04:01:20;15.93;;;11.93;;
42000;SDS011;27689;48.390;10.856;2023-01-19T04:04:05;16.95;;;11.80;;
42000;SDS011;27689;48.390;10.856;2023-01-19T04:06:49;14.55;;;11.23;;
42000;SDS011;27689;48.390;10.856;2023-01-19T04:12:17;20.15;;;11.20;;
42000;SDS011;27689;48.390;10.856;2023-01-19T04:15:01;18.38;;;12.60;;
42000;SDS011;27689;48.390;10.856;2023-01-19T04:17:45;14.98;;;11.18;;
42000;SDS011;27689;48.390;10.856;2023-01-19T04:20:29;17.98;;;12.05;;
42000;SDS011;27689;48.390;10.856;2023-01-19T04:23:13;16.63;;;11.05;;
42000;SDS011;27689;48.390;10.856;2023-01-19T04:26:01;15.77;;;10.65;;
42000;SDS011;27689;48.390;10.856;2023-01-19T04:28:47;18.63;;;12.57;;
42000;SDS011;27689;48.390;10.856;2023-01-19T04:31:31;15.65;;;12.23;;
42000;SDS011;27689;48.390;10.856;2023-01-19T04:34:15;16.55;;;12.20;;
42000;SDS011;27689;48.390;10.856;2023-01-19T04:36:59;16.90;;;12.80;;
42000;SDS011;27689;48.390;10.856;2023-01-19T04:39:43;16.10;;;11.57;;
42000;SDS011;27689;48.390;10.856;2023-01-19T04:42:27;19.83;;;12.90;;
42000;SDS011;27689;48.390;10.856;2023-01-19T04:45:12;17.02;;;12.52;;
42000;SDS011;27689;48.390;10.856;2023-01-19T04:47:56;19.08;;;11.65;;
42000;SDS011;27689;48.390;10.856;2023-01-19T04:50:40;17.88;;;11.65;;
42000;SDS011;27689;48.390;10.856;2023-01-19T04:53:24;17.17;;;11.48;;
42000;SDS011;27689;48.390;10.856;2023-01-19T04:56:08;19.50;;;11.25;;
42000;SDS011;27689;48.390;10.856;2023-01-19T04:58:52;15.10;;;12.00;;
42000;SDS011;27689;48.390;10.856;2023-01-19T05:01:36;16.30;;;12.32;;
42000;SDS011;27689;48.390;10.856;2023-01-19T05:04:20;16.13;;;11.87;;
42000;SDS011;27689;48.390;10.856;2023-01-19T05:07:05;17.25;;;11.23;;
42000;SDS011;27689;48.390;10.856;2023-01-19T05:09:49;18.67;;;12.57;;
42000;SDS011;27689;48.390;10.856;2023-01-19T05:12:33;18.60;;;12.45;;
42000;SDS011;27689;48.390;10.856;2023-01-19T05:15:16;15.40;;;11.02;;
42000;SDS011;27689;48.390;10.856;2023-01-19T05:18:01;17.70;;;12.40;;
42000;SDS011;27689;48.390;10.856;2023-01-19T05:20:44;18.70;;;13.32;;
42000;SDS011;27689;48.390;10.856;2023-01-19T05:23:28;17.70;;;12.18;;
42000;SDS011;27689;48.390;10.856;2023-01-19T05:26:14;16.38;;;11.55;;
42000;SDS011;27689;48.390;10.856;2023-01-19T05:28:58;21.02;;;13.48;;
42000;SDS011;27689;48.390;10.856;2023-01-19T05:31:42;19.98;;;13.50;;
42000;SDS011;27689;48.390;10.856;2023-01-19T05:34:26;21.05;;;12.27;;
42000;SDS011;27689;48.390;10.856;2023-01-19T05:37:10;25.55;;;13.65;;
42000;SDS011;27689;48.390;10.856;2023-01-19T05:39:54;18.35;;;13.20;;
42000;SDS011;27689;48.390;10.856;2023-01-19T05:42:38;16.73;;;12.43;;
42000;SDS011;27689;48.390;10.856;2023-01-19T05:45:22;17.05;;;12.35;;
42000;SDS011;27689;48.390;10.856;2023-01-19T05:48:06;18.00;;;12.13;;
42000;SDS011;27689;48.390;10.856;2023-01-19T05:50:55;17.80;;;12.60;;
42000;SDS011;27689;48.390;10.856;2023-01-19T05:53:40;17.45;;;12.27;;
42000;SDS011;27689;48.390;10.856;2023-01-19T05:56:24;18.75;;;13.10;;
42000;SDS011;27689;48.390;10.856;2023-01-19T05:59:08;16.90;;;11.32;;
42000;SDS011;27689;48.390;10.856;2023-01-19T06:01:52;17.17;;;12.85;;
42000;SDS011;27689;48.390;10.856;2023-01-19T06:04:37;18.23;;;11.35;;
42000;SDS011;27689;48.390;10.856;2023-01-19T06:07:21;17.98;;;12.02;;
42000;SDS011;27689;48.390;10.856;2023-01-19T06:12:49;18.70;;;12.40;;
42000;SDS011;27689;48.390;10.856;2023-01-19T06:15:35;19.58;;;13.55;;
42000;SDS011;27689;48.390;10.856;2023-01-19T06:18:20;15.10;;;12.32;;
42000;SDS011;27689;48.390;10.856;2023-01-19T06:21:04;20.75;;;13.43;;
42000;SDS011;27689;48.390;10.856;2023-01-19T06:23:50;21.63;;;14.23;;
42000;SDS011;27689;48.390;10.856;2023-01-19T06:26:33;20.63;;;14.60;;
42000;SDS011;27689;48.390;10.856;2023-01-19T06:29:17;16.23;;;11.35;;
42000;SDS011;27689;48.390;10.856;2023-01-19T06:32:01;18.90;;;13.70;;
42000;SDS011;27689;48.390;10.856;2023-01-19T06:34:45;19.00;;;13.60;;
42000;SDS011;27689;48.390;10.856;2023-01-19T06:37:29;18.13;;;13.80;;
42000;SDS011;27689;48.390;10.856;2023-01-19T06:40:14;20.10;;;13.60;;
42000;SDS011;27689;48.390;10.856;2023-01-19T06:42:58;22.20;;;14.25;;
42000;SDS011;27689;48.390;10.856;2023-01-19T06:45:42;18.30;;;13.15;;
42000;SDS011;27689;48.390;10.856;2023-01-19T06:48:25;20.15;;;14.02;;
42000;SDS011;27689;48.390;10.856;2023-01-19T06:51:09;20.20;;;13.52;;
42000;SDS011;27689;48.390;10.856;2023-01-19T06:53:53;19.65;;;13.95;;
42000;SDS011;27689;48.390;10.856;2023-01-19T06:56:37;25.38;;;15.68;;
42000;SDS011;27689;48.390;10.856;2023-01-19T06:59:21;21.20;;;14.85;;
42000;SDS011;27689;48.390;10.856;2023-01-19T07:02:05;20.02;;;12.93;;
42000;SDS011;27689;48.390;10.856;2023-01-19T07:04:49;22.00;;;14.20;;
42000;SDS011;27689;48.390;10.856;2023-01-19T07:07:33;21.92;;;13.70;;
42000;SDS011;27689;48.390;10.856;2023-01-19T07:10:16;22.10;;;14.20;;
42000;SDS011;27689;48.390;10.856;2023-01-19T07:13:00;21.90;;;15.02;;
42000;SDS011;27689;48.390;10.856;2023-01-19T07:15:44;21.95;;;13.57;;
42000;SDS011;27689;48.390;10.856;2023-01-19T07:18:28;18.42;;;12.90;;
42000;SDS011;27689;48.390;10.856;2023-01-19T07:21:13;21.25;;;12.43;;
42000;SDS011;27689;48.390;10.856;2023-01-19T07:23:57;18.50;;;12.23;;
42000;SDS011;27689;48.390;10.856;2023-01-19T07:26:41;19.13;;;12.88;;
42000;SDS011;27689;48.390;10.856;2023-01-19T07:29:24;18.15;;;13.07;;
42000;SDS011;27689;48.390;10.856;2023-01-19T07:32:08;20.05;;;14.00;;
42000;SDS011;27689;48.390;10.856;2023-01-19T07:34:52;18.38;;;12.27;;
42000;SDS011;27689;48.390;10.856;2023-01-19T07:37:36;17.50;;;13.35;;
42000;SDS011;27689;48.390;10.856;2023-01-19T07:40:20;18.33;;;13.05;;
42000;SDS011;27689;48.390;10.856;2023-01-19T07:43:04;17.58;;;11.82;;
42000;SDS011;27689;48.390;10.856;2023-01-19T07:45:48;18.58;;;12.30;;
42000;SDS011;27689;48.390;10.856;2023-01-19T07:51:16;17.55;;;12.90;;
42000;SDS011;27689;48.390;10.856;2023-01-19T07:54:02;18.52;;;13.50;;
42000;SDS011;27689;48.390;10.856;2023-01-19T07:56:46;25.50;;;14.60;;
42000;SDS011;27689;48.390;10.856;2023-01-19T07:59:30;17.00;;;13.18;;
42000;SDS011;27689;48.390;10.856;2023-01-19T08:02:14;18.23;;;13.43;;
42000;SDS011;27689;48.390;10.856;2023-01-19T08:04:58;19.90;;;13.77;;
42000;SDS011;27689;48.390;10.856;2023-01-19T08:07:42;20.83;;;14.00;;
42000;SDS011;27689;48.390;10.856;2023-01-19T08:10:27;19.52;;;14.13;;
42000;SDS011;27689;48.390;10.856;2023-01-19T08:13:11;15.07;;;10.95;;
42000;SDS011;27689;48.390;10.856;2023-01-19T08:15:55;13.63;;;9.60;;
42000;SDS011;27689;48.390;10.856;2023-01-19T08:18:39;18.60;;;12.60;;
42000;SDS011;27689;48.390;10.856;2023-01-19T08:21:23;16.83;;;12.88;;
42000;SDS011;27689;48.390;10.856;2023-01-19T08:24:09;20.35;;;13.18;;
42000;SDS011;27689;48.390;10.856;2023-01-19T08:27:01;20.75;;;14.35;;
42000;SDS011;27689;48.390;10.856;2023-01-19T08:29:46;20.45;;;13.57;;
42000;SDS011;27689;48.390;10.856;2023-01-19T08:32:30;17.73;;;13.75;;
42000;SDS011;27689;48.390;10.856;2023-01-19T08:35:15;21.27;;;13.25;;
42000;SDS011;27689;48.390;10.856;2023-01-19T08:37:59;14.98;;;10.52;;
42000;SDS011;27689;48.390;10.856;2023-01-19T08:40:44;20.13;;;13.18;;
42000;SDS011;27689;48.390;10.856;2023-01-19T08:43:28;21.58;;;14.48;;
42000;SDS011;27689;48.390;10.856;2023-01-19T08:46:12;17.30;;;12.80;;
42000;SDS011;27689;48.390;10.856;2023-01-19T08:48:59;18.83;;;13.05;;
42000;SDS011;27689;48.390;10.856;2023-01-19T08:51:43;19.30;;;13.45;;
42000;SDS011;27689;48.390;10.856;2023-01-19T08:54:29;19.48;;;13.32;;
42000;SDS011;27689;48.390;10.856;2023-01-19T08:57:13;20.10;;;13.80;;
42000;SDS011;27689;48.390;10.856;2023-01-19T08:59:57;18.98;;;14.43;;
42000;SDS011;27689;48.390;10.856;2023-01-19T09:02:41;21.27;;;14.57;;
42000;SDS011;27689;48.390;10.856;2023-01-19T09:05:25;20.42;;;13.55;;
42000;SDS011;27689;48.390;10.856;2023-01-19T09:08:10;19.25;;;13.43;;
42000;SDS011;27689;48.390;10.856;2023-01-19T09:10:56;16.77;;;13.15;;
42000;SDS011;27689;48.390;10.856;2023-01-19T09:13:40;23.83;;;13.73;;
42000;SDS011;27689;48.390;10.856;2023-01-19T09:16:24;18.10;;;13.60;;
42000;SDS011;27689;48.390;10.856;2023-01-19T09:19:09;20.48;;;14.18;;
42000;SDS011;27689;48.390;10.856;2023-01-19T09:21:53;20.02;;;14.38;;
42000;SDS011;27689;48.390;10.856;2023-01-19T09:24:37;23.58;;;14.77;;
42000;SDS011;27689;48.390;10.856;2023-01-19T09:30:07;21.45;;;13.45;;
42000;SDS011;27689;48.390;10.856;2023-01-19T09:32:54;20.38;;;13.93;;
42000;SDS011;27689;48.390;10.856;2023-01-19T09:35:38;20.58;;;14.23;;
42000;SDS011;27689;48.390;10.856;2023-01-19T09:38:23;18.55;;;12.77;;
42000;SDS011;27689;48.390;10.856;2023-01-19T09:41:11;17.20;;;12.55;;
42000;SDS011;27689;48.390;10.856;2023-01-19T09:44:02;17.08;;;12.45;;
42000;SDS011;27689;48.390;10.856;2023-01-19T09:46:47;19.33;;;12.18;;
42000;SDS011;27689;48.390;10.856;2023-01-19T09:49:32;18.92;;;12.43;;
42000;SDS011;27689;48.390;10.856;2023-01-19T09:52:19;17.52;;;12.75;;
42000;SDS011;27689;48.390;10.856;2023-01-19T09:55:04;17.38;;;12.40;;
42000;SDS011;27689;48.390;10.856;2023-01-19T09:58:02;18.48;;;12.52;;
42000;SDS011;27689;48.390;10.856;2023-01-19T10:00:54;16.25;;;11.55;;
42000;SDS011;27689;48.390;10.856;2023-01-19T10:03:47;19.10;;;13.23;;
42000;SDS011;27689;48.390;10.856;2023-01-19T10:06:40;15.50;;;11.93;;
42000;SDS011;27689;48.390;10.856;2023-01-19T10:18:56;16.10;;;10.63;;
42000;SDS011;27689;48.390;10.856;2023-01-19T10:22:01;13.82;;;10.68;;
42000;SDS011;27689;48.390;10.856;2023-01-19T10:25:00;12.25;;;9.50;;
42000;SDS011;27689;48.390;10.856;2023-01-19T10:27:48;14.38;;;10.20;;
42000;SDS011;27689;48.390;10.856;2023-01-19T10:30:33;12.23;;;9.82;;
42000;SDS011;27689;48.390;10.856;2023-01-19T10:36:02;15.27;;;10.45;;
42000;SDS011;27689;48.390;10.856;2023-01-19T10:38:58;15.55;;;9.55;;
42000;SDS011;27689;48.390;10.856;2023-01-19T10:41:52;16.08;;;11.50;;
42000;SDS011;27689;48.390;10.856;2023-01-19T10:44:36;16.27;;;11.35;;
42000;SDS011;27689;48.390;10.856;2023-01-19T10:47:20;13.07;;;10.00;;
42000;SDS011;27689;48.390;10.856;2023-01-19T10:53:20;12.68;;;9.13;;
42000;SDS011;27689;48.390;10.856;2023-01-19T10:56:13;11.43;;;8.98;;
42000;SDS011;27689;48.390;10.856;2023-01-19T10:59:00;11.77;;;8.83;;
42000;SDS011;27689;48.390;10.856;2023-01-19T11:01:47;12.20;;;8.73;;
42000;SDS011;27689;48.390;10.856;2023-01-19T11:04:47;14.63;;;8.70;;
42000;SDS011;27689;48.390;10.856;2023-01-19T11:07:32;11.93;;;9.02;;
42000;SDS011;27689;48.390;10.856;2023-01-19T11:13:02;12.80;;;9.10;;
42000;SDS011;27689;48.390;10.856;2023-01-19T11:15:52;12.50;;;8.43;;
42000;SDS011;27689;48.390;10.856;2023-01-19T11:18:40;11.32;;;8.00;;
42000;SDS011;27689;48.390;10.856;2023-01-19T11:21:26;14.00;;;8.40;;
42000;SDS011;27689;48.390;10.856;2023-01-19T11:24:12;12.48;;;8.77;;
42000;SDS011;27689;48.390;10.856;2023-01-19T11:26:58;11.15;;;7.82;;
42000;SDS011;27689;48.390;10.856;2023-01-19T11:29:59;11.43;;;7.53;;
42000;SDS011;27689;48.390;10.856;2023-01-19T11:32:47;11.32;;;8.10;;
42000;SDS011;27689;48.390;10.856;2023-01-19T11:38:23;10.68;;;8.27;;
42000;SDS011;27689;48.390;10.856;2023-01-19T11:41:13;11.70;;;8.43;;
42000;SDS011;27689;48.390;10.856;2023-01-19T11:44:36;9.18;;;7.13;;
42000;SDS011;27689;48.390;10.856;2023-01-19T11:47:24;9.00;;;6.55;;
42000;SDS011;27689;48.390;10.856;2023-01-19T11:50:22;10.98;;;6.97;;
42000;SDS011;27689;48.390;10.856;2023-01-19T11:53:33;8.18;;;6.68;;
42000;SDS011;27689;48.390;10.856;2023-01-19T11:56:19;11.02;;;7.13;;
42000;SDS011;27689;48.390;10.856;2023-01-19T11:59:08;7.80;;;5.93;;
42000;SDS011;27689;48.390;10.856;2023-01-19T12:01:56;9.35;;;6.20;;
42000;SDS011;27689;48.390;10.856;2023-01-19T12:04:43;11.32;;;6.50;;
42000;SDS011;27689;48.390;10.856;2023-01-19T12:07:32;9.68;;;6.47;;
42000;SDS011;27689;48.390;10.856;2023-01-19T12:13:17;12.30;;;7.55;;
42000;SDS011;27689;48.390;10.856;2023-01-19T12:16:12;12.55;;;8.13;;
42000;SDS011;27689;48.390;10.856;2023-01-19T12:19:15;13.52;;;8.02;;
42000;SDS011;27689;48.390;10.856;2023-01-19T12:22:01;10.93;;;7.53;;
42000;SDS011;27689;48.390;10.856;2023-01-19T12:24:54;11.80;;;7.53;;
42000;SDS011;27689;48.390;10.856;2023-01-19T12:27:45;11.57;;;8.57;;
42000;SDS011;27689;48.390;10.856;2023-01-19T12:30:31;13.45;;;7.90;;
42000;SDS011;27689;48.390;10.856;2023-01-19T12:33:49;10.30;;;7.70;;
42000;SDS011;27689;48.390;10.856;2023-01-19T12:39:20;10.32;;;7.78;;
42000;SDS011;27689;48.390;10.856;2023-01-19T12:42:13;10.00;;;8.38;;
42000;SDS011;27689;48.390;10.856;2023-01-19T12:45:03;9.73;;;7.90;;
42000;SDS011;27689;48.390;10.856;2023-01-19T12:47:56;12.60;;;8.40;;
42000;SDS011;27689;48.390;10.856;2023-01-19T12:50:40;9.32;;;6.72;;
42000;SDS011;27689;48.390;10.856;2023-01-19T12:53:28;11.05;;;7.35;;
42000;SDS011;27689;48.390;10.856;2023-01-19T12:56:13;9.63;;;6.80;;
42000;SDS011;27689;48.390;10.856;2023-01-19T12:59:00;10.63;;;7.60;;
42000;SDS011;27689;48.390;10.856;2023-01-19T13:02:15;10.43;;;7.75;;
42000;SDS011;27689;48.390;10.856;2023-01-19T13:08:11;12.57;;;7.90;;
42000;SDS011;27689;48.390;10.856;2023-01-19T13:13:44;9.75;;;7.50;;
42000;SDS011;27689;48.390;10.856;2023-01-19T13:16:57;9.30;;;6.88;;
42000;SDS011;27689;48.390;10.856;2023-01-19T13:19:43;8.55;;;7.03;;
42000;SDS011;27689;48.390;10.856;2023-01-19T13:25:30;10.88;;;7.28;;
42000;SDS011;27689;48.390;10.856;2023-01-19T13:28:18;9.82;;;7.63;;
42000;SDS011;27689;48.390;10.856;2023-01-19T13:31:06;8.95;;;7.10;;
42000;SDS011;27689;48.390;10.856;2023-01-19T13:33:56;10.77;;;6.82;;
42000;SDS011;27689;48.390;10.856;2023-01-19T13:36:43;9.68;;;6.47;;
42000;SDS011;27689;48.390;10.856;2023-01-19T13:39:36;9.35;;;6.70;;
42000;SDS011;27689;48.390;10.856;2023-01-19T13:42:30;12.00;;;7.05;;
42000;SDS011;27689;48.390;10.856;2023-01-19T13:45:31;12.07;;;6.97;;
42000;SDS011;27689;48.390;10.856;2023-01-19T13:48:20;14.52;;;9.10;;
42000;SDS011;27689;48.390;10.856;2023-01-19T13:51:05;10.20;;;7.28;;
42000;SDS011;27689;48.390;10.856;2023-01-19T13:53:59;8.77;;;6.30;;
42000;SDS011;27689;48.390;10.856;2023-01-19T13:56:47;8.68;;;6.60;;
42000;SDS011;27689;48.390;10.856;2023-01-19T13:59:32;11.23;;;6.28;;
42000;SDS011;27689;48.390;10.856;2023-01-19T14:02:16;9.60;;;6.20;;
42000;SDS011;27689;48.390;10.856;2023-01-19T14:05:14;8.88;;;6.72;;
42000;SDS011;27689;48.390;10.856;2023-01-19T14:13:42;10.13;;;6.40;;
42000;SDS011;27689;48.390;10.856;2023-01-19T14:16:28;9.68;;;6.18;;
42000;SDS011;27689;48.390;10.856;2023-01-19T14:19:13;9.27;;;6.30;;
42000;SDS011;27689;48.390;10.856;2023-01-19T14:22:01;10.48;;;6.47;;
42000;SDS011;27689;48.390;10.856;2023-01-19T14:24:47;10.90;;;6.72;;
42000;SDS011;27689;48.390;10.856;2023-01-19T14:27:31;10.68;;;5.80;;
42000;SDS011;27689;48.390;10.856;2023-01-19T14:30:19;12.93;;;6.68;;
42000;SDS011;27689;48.390;10.856;2023-01-19T14:33:04;10.63;;;6.78;;
42000;SDS011;27689;48.390;10.856;2023-01-19T14:35:54;8.35;;;6.07;;
42000;SDS011;27689;48.390;10.856;2023-01-19T14:38:42;8.52;;;6.07;;
42000;SDS011;27689;48.390;10.856;2023-01-19T14:41:37;7.70;;;5.97;;
42000;SDS011;27689;48.390;10.856;2023-01-19T14:44:31;11.48;;;6.22;;
42000;SDS011;27689;48.390;10.856;2023-01-19T14:47:41;9.38;;;6.32;;
42000;SDS011;27689;48.390;10.856;2023-01-19T14:50:27;7.97;;;6.18;;
42000;SDS011;27689;48.390;10.856;2023-01-19T14:53:16;11.00;;;7.05;;
42000;SDS011;27689;48.390;10.856;2023-01-19T14:56:04;11.18;;;6.20;;
42000;SDS011;27689;48.390;10.856;2023-01-19T14:58:49;8.02;;;6.07;;
42000;SDS011;27689;48.390;10.856;2023-01-19T15:01:33;12.90;;;6.63;;
42000;SDS011;27689;48.390;10.856;2023-01-19T15:04:17;13.73;;;6.63;;
42000;SDS011;27689;48.390;10.856;2023-01-19T15:07:01;9.07;;;6.22;;
42000;SDS011;27689;48.390;10.856;2023-01-19T15:09:45;11.65;;;6.82;;
42000;SDS011;27689;48.390;10.856;2023-01-19T15:12:30;9.80;;;6.53;;
42000;SDS011;27689;48.390;10.856;2023-01-19T15:15:26;9.27;;;6.55;;
42000;SDS011;27689;48.390;10.856;2023-01-19T15:18:15;8.65;;;6.20;;
42000;SDS011;27689;48.390;10.856;2023-01-19T15:21:02;8.60;;;6.15;;
42000;SDS011;27689;48.390;10.856;2023-01-19T15:23:46;8.73;;;6.47;;
42000;SDS011;27689;48.390;10.856;2023-01-19T15:26:33;11.23;;;7.38;;
42000;SDS011;27689;48.390;10.856;2023-01-19T15:29:20;7.68;;;5.60;;
42000;SDS011;27689;48.390;10.856;2023-01-19T15:32:10;9.48;;;7.10;;
42000;SDS011;27689;48.390;10.856;2023-01-19T15:34:56;14.27;;;7.60;;
42000;SDS011;27689;48.390;10.856;2023-01-19T15:37:40;9.52;;;6.65;;
42000;SDS011;27689;48.390;10.856;2023-01-19T15:40:24;8.32;;;6.55;;
42000;SDS011;27689;48.390;10.856;2023-01-19T15:43:10;14.82;;;8.40;;
42000;SDS011;27689;48.390;10.856;2023-01-19T15:45:55;12.38;;;7.60;;
42000;SDS011;27689;48.390;10.856;2023-01-19T15:48:43;13.70;;;8.55;;
42000;SDS011;27689;48.390;10.856;2023-01-19T15:51:27;10.18;;;7.30;;
42000;SDS011;27689;48.390;10.856;2023-01-19T15:54:12;10.65;;;7.70;;
42000;SDS011;27689;48.390;10.856;2023-01-19T15:56:57;10.23;;;7.60;;
42000;SDS011;27689;48.390;10.856;2023-01-19T15:59:41;9.57;;;7.00;;
42000;SDS011;27689;48.390;10.856;2023-01-19T16:02:25;11.32;;;7.50;;
42000;SDS011;27689;48.390;10.856;2023-01-19T16:05:09;11.20;;;7.55;;
42000;SDS011;27689;48.390;10.856;2023-01-19T16:07:53;11.32;;;8.38;;
42000;SDS011;27689;48.390;10.856;2023-01-19T16:10:37;10.98;;;7.07;;
42000;SDS011;27689;48.390;10.856;2023-01-19T16:13:21;8.52;;;6.50;;
42000;SDS011;27689;48.390;10.856;2023-01-19T16:16:11;16.77;;;7.90;;
42000;SDS011;27689;48.390;10.856;2023-01-19T16:18:57;13.82;;;8.20;;
42000;SDS011;27689;48.390;10.856;2023-01-19T16:21:41;12.13;;;7.40;;
42000;SDS011;27689;48.390;10.856;2023-01-19T16:24:26;14.32;;;8.30;;
42000;SDS011;27689;48.390;10.856;2023-01-19T16:27:10;11.40;;;7.85;;
42000;SDS011;27689;48.390;10.856;2023-01-19T16:29:54;13.90;;;9.77;;
42000;SDS011;27689;48.390;10.856;2023-01-19T16:32:39;10.73;;;7.78;;
42000;SDS011;27689;48.390;10.856;2023-01-19T16:35:23;8.70;;;6.57;;
42000;SDS011;27689;48.390;10.856;2023-01-19T16:38:07;11.32;;;7.10;;
42000;SDS011;27689;48.390;10.856;2023-01-19T16:40:51;10.20;;;7.20;;
42000;SDS011;27689;48.390;10.856;2023-01-19T16:43:35;10.80;;;7.22;;
42000;SDS011;27689;48.390;10.856;2023-01-19T16:46:21;11.15;;;7.75;;
42000;SDS011;27689;48.390;10.856;2023-01-19T16:49:12;11.27;;;6.65;;
42000;SDS011;27689;48.390;10.856;2023-01-19T16:52:03;9.63;;;6.40;;
42000;SDS011;27689;48.390;10.856;2023-01-19T16:54:48;10.60;;;7.03;;
42000;SDS011;27689;48.390;10.856;2023-01-19T16:57:37;14.75;;;8.20;;
42000;SDS011;27689;48.390;10.856;2023-01-19T17:00:24;13.50;;;8.48;;
42000;SDS011;27689;48.390;10.856;2023-01-19T17:03:07;10.55;;;7.15;;
42000;SDS011;27689;48.390;10.856;2023-01-19T17:05:51;7.78;;;6.30;;
42000;SDS011;27689;48.390;10.856;2023-01-19T17:08:36;14.88;;;7.53;;
42000;SDS011;27689;48.390;10.856;2023-01-19T17:11:25;12.52;;;8.75;;
42000;SDS011;27689;48.390;10.856;2023-01-19T17:14:12;7.47;;;6.10;;
42000;SDS011;27689;48.390;10.856;2023-01-19T17:16:57;11.85;;;6.72;;
42000;SDS011;27689;48.390;10.856;2023-01-19T17:19:41;10.32;;;6.70;;
42000;SDS011;27689;48.390;10.856;2023-01-19T17:22:28;10.32;;;7.53;;
42000;SDS011;27689;48.390;10.856;2023-01-19T17:25:12;9.52;;;6.60;;
42000;SDS011;27689;48.390;10.856;2023-01-19T17:27:57;10.45;;;6.80;;
42000;SDS011;27689;48.390;10.856;2023-01-19T17:30:46;11.50;;;6.85;;